SBOSBO EAP / LFSB
Speedbird OnlineSpeedbird Online EAP / LFSB

EuroAirport Basel-Mulhouse-Freiburg Airport
15:01 5.9°C

Location Basel, Switzerland
Latitude: 47.59
Longitude: 7.5291667
Web Airport Website | Wikipedia
Altitude 270 Meter / 885 Feet
Distance 689 KM / 428 Miles
from London.
Time Zone UTC +1 hours (Europe/Paris)
Codes IATA: EAP
ICAO: LFSB
Currency £1 equals CHF 1.14
Runways
RunwayLength (m)Surface
071715Concrete
153900Concrete
251715Concrete
333900Concrete
Radio
TypeDescriptionFrequency
A/DAPP118.575
ATISATIS127.875
GNDGND121.6
INFOINFO121.25
PFLTPREFLIGHT120.5
TWRTWR118.3
Live ATC
METAR LFSB 311330Z AUTO 25010KT 210V270 9999 BKN031 BKN098 OVC120 06/00 Q1028 NOSIG
TAF TAF LFSB 311100Z 3112/0112 26009KT 9999 SCT025 TEMPO 3123/0112 -RA
Weather As Of 31 Jan 2023 15:01
Description Overcast clouds
Wind 19 km/h from West (250°)
Cloud Cover 100%
Precipitation Rain: none, Snow: none
Sunrise 07:58
Sunset 17:28
Rotations During the last 90 days there were
44 flights from LHR
45 flights to LHR



Support Speedbird Online

© 2017-2023 Speedbird Online